createdAt,value
2022-12-15T00:01:04.447Z,23.52
2022-12-15T00:03:52.334Z,20.58
2022-12-15T00:06:38.885Z,21.08
2022-12-15T00:09:30.928Z,22.02
2022-12-15T00:12:17.811Z,21.08
2022-12-15T00:17:59.486Z,15.23
2022-12-15T00:20:46.028Z,18.30
2022-12-15T00:26:23.015Z,15.70
2022-12-15T00:29:08.579Z,14.70
2022-12-15T00:31:54.717Z,20.83
2022-12-15T00:34:42.404Z,25.65
2022-12-15T00:37:29.841Z,24.63
2022-12-15T00:39:59.521Z,23.67
2022-12-15T00:42:28.809Z,17.77
2022-12-15T00:44:59.570Z,20.90
2022-12-15T00:47:29.168Z,25.30
2022-12-15T00:50:14.876Z,23.45
2022-12-15T00:53:04.954Z,26.85
2022-12-15T00:55:54.421Z,27.48
2022-12-15T00:58:39.802Z,24.98
2022-12-15T01:01:28.394Z,25.52
2022-12-15T01:04:14.378Z,24.10
2022-12-15T01:06:59.722Z,26.70
2022-12-15T01:09:52.359Z,25.02
2022-12-15T01:12:37.702Z,28.85
2022-12-15T01:15:23.193Z,19.90
2022-12-15T01:18:08.591Z,26.15
2022-12-15T01:20:36.574Z,20.65
2022-12-15T01:23:13.595Z,22.25
2022-12-15T01:25:43.057Z,20.52
2022-12-15T01:28:11.670Z,28.42
2022-12-15T01:30:39.236Z,25.80
2022-12-15T01:33:09.905Z,25.30
2022-12-15T01:35:39.947Z,26.02
2022-12-15T01:40:47.258Z,26.08
2022-12-15T01:43:17.164Z,21.05
2022-12-15T01:45:52.759Z,17.05
2022-12-15T01:48:44.486Z,24.17
2022-12-15T01:51:18.026Z,25.13
2022-12-15T01:53:54.242Z,20.90
2022-12-15T01:56:23.576Z,21.30
2022-12-15T01:58:53.933Z,23.33
2022-12-15T02:01:25.446Z,17.67
2022-12-15T02:03:53.029Z,17.70
2022-12-15T02:08:53.586Z,17.10
2022-12-15T02:11:43.071Z,18.13
2022-12-15T02:14:12.408Z,15.85
2022-12-15T02:16:50.527Z,18.60
2022-12-15T02:19:38.112Z,26.95
2022-12-15T02:22:15.371Z,21.20
2022-12-15T02:25:07.433Z,23.77
2022-12-15T02:27:53.719Z,27.25
2022-12-15T02:30:26.541Z,20.25
2022-12-15T02:33:24.154Z,21.67
2022-12-15T02:36:13.407Z,22.40
2022-12-15T02:38:41.981Z,20.13
2022-12-15T02:41:54.744Z,21.35
2022-12-15T02:44:35.966Z,18.45
2022-12-15T02:47:13.128Z,20.95
2022-12-15T02:49:58.578Z,18.48
2022-12-15T02:52:35.250Z,18.70
2022-12-15T02:55:24.749Z,18.75
2022-12-15T02:58:03.495Z,20.42
2022-12-15T03:00:35.943Z,26.00
2022-12-15T03:03:03.260Z,19.80
2022-12-15T03:05:32.572Z,18.45
2022-12-15T03:08:04.514Z,17.58
2022-12-15T03:10:34.013Z,22.40
2022-12-15T03:13:01.088Z,19.98
2022-12-15T03:18:02.605Z,16.35
2022-12-15T03:22:56.372Z,15.32
2022-12-15T03:25:23.126Z,16.15
2022-12-15T03:27:49.919Z,20.42
2022-12-15T03:30:19.432Z,17.73
2022-12-15T03:32:47.240Z,18.65
2022-12-15T03:35:14.228Z,19.77
2022-12-15T03:37:44.581Z,16.45
2022-12-15T03:40:13.964Z,17.60
2022-12-15T03:42:48.619Z,16.95
2022-12-15T03:45:23.776Z,18.27
2022-12-15T03:47:54.446Z,16.13
2022-12-15T03:50:24.558Z,17.10
2022-12-15T03:52:57.046Z,19.08
2022-12-15T03:55:24.862Z,17.13
2022-12-15T03:57:52.850Z,18.92
2022-12-15T04:00:24.587Z,15.93
2022-12-15T04:02:53.101Z,22.92
2022-12-15T04:05:29.595Z,18.63
2022-12-15T04:07:59.393Z,22.35
2022-12-15T04:10:33.574Z,19.63
2022-12-15T04:13:06.082Z,15.60
2022-12-15T04:15:36.048Z,18.38
2022-12-15T04:18:06.178Z,16.13
2022-12-15T04:20:33.292Z,22.83
2022-12-15T04:23:01.388Z,22.95
2022-12-15T04:25:46.886Z,22.17
2022-12-15T04:28:32.538Z,16.35
2022-12-15T04:31:32.632Z,15.80
2022-12-15T04:34:29.625Z,20.33
2022-12-15T04:37:15.904Z,16.35
2022-12-15T04:40:07.642Z,16.05
2022-12-15T04:42:54.781Z,18.50
2022-12-15T04:45:42.856Z,16.73
2022-12-15T04:48:29.821Z,19.15
2022-12-15T04:51:18.446Z,17.90
2022-12-15T04:54:04.607Z,23.95
2022-12-15T04:56:54.627Z,17.17
2022-12-15T04:59:48.273Z,19.60
2022-12-15T05:02:34.109Z,18.17
2022-12-15T05:05:23.270Z,17.70
2022-12-15T05:08:11.876Z,18.52
2022-12-15T05:10:57.311Z,19.13
2022-12-15T05:13:42.530Z,20.00
2022-12-15T05:16:27.970Z,16.73
2022-12-15T05:19:14.608Z,17.23
2022-12-15T05:22:02.963Z,23.98
2022-12-15T05:24:48.110Z,23.05
2022-12-15T05:27:33.429Z,15.80
2022-12-15T05:30:18.679Z,23.83
2022-12-15T05:32:45.984Z,19.08
2022-12-15T05:35:17.087Z,18.27
2022-12-15T05:37:43.830Z,19.10
2022-12-15T05:40:11.908Z,20.70
2022-12-15T05:42:38.475Z,17.55
2022-12-15T05:45:07.876Z,22.38
2022-12-15T05:47:34.663Z,20.58
2022-12-15T05:50:04.009Z,17.98
2022-12-15T05:52:30.891Z,17.75
2022-12-15T05:57:26.999Z,18.17
2022-12-15T05:59:53.891Z,19.20
2022-12-15T06:02:22.708Z,19.20
2022-12-15T06:04:49.491Z,17.23
2022-12-15T06:07:19.717Z,15.77
2022-12-15T06:09:48.885Z,16.42
2022-12-15T06:12:19.899Z,18.95
2022-12-15T06:14:49.889Z,20.02
2022-12-15T06:17:17.275Z,19.90
2022-12-15T06:19:44.205Z,19.00
2022-12-15T06:22:10.959Z,16.67
2022-12-15T06:24:42.834Z,20.17
2022-12-15T06:27:12.749Z,19.27
2022-12-15T06:29:39.565Z,20.02
2022-12-15T06:34:49.465Z,22.83
2022-12-15T06:37:16.686Z,26.80
2022-12-15T06:39:43.648Z,23.10
2022-12-15T06:42:10.817Z,23.63
2022-12-15T06:44:40.542Z,23.13
2022-12-15T06:47:12.124Z,18.80
2022-12-15T06:49:39.330Z,21.15
2022-12-15T06:52:10.733Z,19.80
2022-12-15T06:54:38.731Z,19.73
2022-12-15T06:57:05.934Z,16.23
2022-12-15T06:59:33.684Z,20.33
2022-12-15T07:02:04.014Z,17.25
2022-12-15T07:04:35.337Z,18.83
2022-12-15T07:07:05.847Z,18.63
2022-12-15T07:09:35.324Z,23.05
2022-12-15T07:12:05.483Z,21.23
2022-12-15T07:14:32.532Z,19.92
2022-12-15T07:19:28.159Z,17.58
2022-12-15T07:21:57.929Z,19.48
2022-12-15T07:24:24.700Z,18.75
2022-12-15T07:26:54.691Z,23.80
2022-12-15T07:29:23.633Z,22.15
2022-12-15T07:31:50.814Z,21.20
2022-12-15T07:36:52.500Z,17.45
2022-12-15T07:39:19.665Z,17.02
2022-12-15T07:41:47.009Z,21.45
2022-12-15T07:44:19.553Z,18.35
2022-12-15T07:46:49.347Z,19.40
2022-12-15T07:49:45.122Z,24.42
2022-12-15T07:52:22.920Z,22.13
2022-12-15T07:54:50.135Z,21.73
2022-12-15T07:57:18.246Z,17.35
2022-12-15T07:59:45.113Z,19.85
2022-12-15T08:02:19.512Z,23.40
2022-12-15T08:04:48.551Z,19.10
2022-12-15T08:07:17.738Z,24.05
2022-12-15T08:09:48.443Z,24.27
2022-12-15T08:12:20.019Z,23.00
2022-12-15T08:15:49.308Z,21.73
2022-12-15T08:18:19.103Z,27.38
2022-12-15T08:20:50.338Z,23.40
2022-12-15T08:23:18.839Z,26.67
2022-12-15T08:25:46.175Z,28.83
2022-12-15T08:28:15.510Z,27.75
2022-12-15T08:30:43.062Z,24.13
2022-12-15T08:33:13.004Z,25.00
2022-12-15T08:35:57.467Z,25.10
2022-12-15T08:38:24.795Z,21.05
2022-12-15T08:40:52.853Z,22.02
2022-12-15T08:43:19.605Z,21.35
2022-12-15T08:45:47.253Z,23.45
2022-12-15T08:48:14.182Z,26.98
2022-12-15T08:50:45.811Z,25.17
2022-12-15T08:56:08.534Z,24.27
2022-12-15T08:58:35.173Z,27.55
2022-12-15T09:01:10.189Z,24.77
2022-12-15T09:03:40.892Z,29.67
2022-12-15T09:06:24.826Z,28.25
2022-12-15T09:08:58.626Z,20.08
2022-12-15T09:11:32.146Z,22.38
2022-12-15T09:14:27.096Z,19.05
2022-12-15T09:16:55.970Z,20.33
2022-12-15T09:19:23.985Z,21.40
2022-12-15T09:21:59.820Z,20.58
2022-12-15T09:25:03.182Z,20.07
2022-12-15T09:27:39.756Z,23.27
2022-12-15T09:30:38.147Z,28.27
2022-12-15T09:33:05.317Z,21.98
2022-12-15T09:35:35.370Z,19.85
2022-12-15T09:38:05.895Z,21.88
2022-12-15T09:40:50.756Z,23.52
2022-12-15T09:43:40.049Z,28.33
2022-12-15T09:46:50.712Z,24.48
2022-12-15T09:49:54.715Z,23.90
2022-12-15T09:52:48.798Z,23.42
2022-12-15T09:55:29.093Z,22.55
2022-12-15T09:58:27.404Z,22.98
2022-12-15T10:01:15.135Z,24.30
2022-12-15T10:03:54.808Z,23.77
2022-12-15T10:07:03.546Z,24.15
2022-12-15T10:09:33.069Z,22.25
2022-12-15T10:12:05.511Z,22.73
2022-12-15T10:14:50.072Z,27.63
2022-12-15T10:17:44.683Z,28.27
2022-12-15T10:20:35.911Z,22.45
2022-12-15T10:23:20.563Z,21.45
2022-12-15T10:26:20.445Z,25.13
2022-12-15T10:29:23.911Z,27.20
2022-12-15T10:32:02.696Z,21.67
2022-12-15T10:34:35.444Z,18.33
2022-12-15T10:37:05.359Z,27.15
2022-12-15T10:39:50.307Z,27.33
2022-12-15T10:45:39.669Z,30.98
2022-12-15T10:48:22.926Z,25.90
2022-12-15T10:51:32.913Z,24.27
2022-12-15T10:54:24.454Z,22.92
2022-12-15T10:57:13.114Z,21.17
2022-12-15T11:00:35.504Z,24.90
2022-12-15T11:07:35.612Z,20.17
2022-12-15T11:11:07.776Z,24.63
2022-12-15T11:13:36.176Z,22.88
2022-12-15T11:16:27.115Z,20.30
2022-12-15T11:19:50.144Z,17.85
2022-12-15T11:23:04.475Z,19.30
2022-12-15T11:26:34.150Z,24.15
2022-12-15T11:29:43.989Z,21.13
2022-12-15T11:32:22.686Z,23.08
2022-12-15T11:35:05.957Z,21.77
2022-12-15T11:37:40.428Z,19.50
2022-12-15T11:40:33.409Z,21.15
2022-12-15T11:43:09.883Z,18.88
2022-12-15T11:45:55.757Z,17.67
2022-12-15T11:48:33.192Z,14.93
2022-12-15T11:51:24.449Z,16.77
2022-12-15T11:54:09.643Z,16.08
2022-12-15T11:57:03.628Z,18.98
2022-12-15T11:59:45.907Z,17.65
2022-12-15T12:03:14.487Z,16.15
2022-12-15T12:06:17.526Z,19.70
2022-12-15T12:09:12.382Z,15.15
2022-12-15T12:12:05.411Z,18.20
2022-12-15T12:14:53.850Z,17.50
2022-12-15T12:18:27.143Z,14.50
2022-12-15T12:21:05.322Z,15.18
2022-12-15T12:24:10.087Z,17.48
2022-12-15T12:26:58.735Z,16.38
2022-12-15T12:29:51.062Z,18.27
2022-12-15T12:32:45.520Z,17.13
2022-12-15T12:35:48.877Z,15.40
2022-12-15T12:38:35.218Z,17.52
2022-12-15T12:41:28.744Z,14.07
2022-12-15T12:44:02.953Z,20.50
2022-12-15T12:46:39.320Z,17.73
2022-12-15T12:49:37.065Z,15.18
2022-12-15T12:55:58.635Z,14.63
2022-12-15T12:58:53.178Z,13.77
2022-12-15T13:02:04.652Z,13.38
2022-12-15T13:04:40.797Z,14.05
2022-12-15T13:07:46.072Z,19.13
2022-12-15T13:10:35.091Z,18.75
2022-12-15T13:13:36.089Z,11.60
2022-12-15T13:16:30.456Z,12.63
2022-12-15T13:19:15.604Z,13.27
2022-12-15T13:22:29.257Z,12.13
2022-12-15T13:25:00.788Z,13.05
2022-12-15T13:27:41.014Z,15.25
2022-12-15T13:30:10.244Z,14.93
2022-12-15T13:32:42.737Z,14.50
2022-12-15T13:35:47.472Z,16.42
2022-12-15T13:38:19.616Z,14.93
2022-12-15T13:40:58.282Z,14.95
2022-12-15T13:43:34.465Z,16.55
2022-12-15T13:46:30.397Z,14.05
2022-12-15T13:49:28.675Z,14.27
2022-12-15T13:53:16.295Z,12.48
2022-12-15T13:55:40.260Z,14.70
2022-12-15T13:58:18.841Z,14.90
2022-12-15T14:01:05.852Z,17.77
2022-12-15T14:03:39.720Z,13.32
2022-12-15T14:06:17.585Z,12.82
2022-12-15T14:08:51.069Z,14.95
2022-12-15T14:11:53.192Z,15.30
2022-12-15T15:03:04.066Z,22.15
2022-12-15T19:00:22.208Z,14.47
2022-12-15T19:05:57.359Z,41.25
2022-12-15T19:08:36.498Z,15.45
2022-12-15T19:11:46.841Z,18.92
2022-12-15T19:14:35.172Z,14.05
2022-12-15T19:17:35.765Z,16.00
2022-12-15T19:20:35.079Z,17.00
2022-12-15T19:23:03.500Z,18.65
2022-12-15T19:25:33.692Z,15.80
2022-12-15T19:28:01.549Z,19.10
2022-12-15T19:30:45.487Z,16.92
2022-12-15T19:33:21.885Z,16.13
2022-12-15T19:35:55.494Z,17.38
2022-12-15T19:38:33.418Z,18.75
2022-12-15T19:41:02.927Z,15.90
2022-12-15T19:43:31.030Z,21.50
2022-12-15T19:46:00.385Z,22.08
2022-12-15T19:48:29.081Z,24.77
2022-12-15T19:50:56.142Z,18.50
2022-12-15T19:56:01.767Z,13.68
2022-12-15T19:58:39.663Z,16.27
2022-12-15T20:01:16.672Z,13.90
2022-12-15T20:03:53.254Z,13.80
2022-12-15T20:06:26.092Z,13.48
2022-12-15T20:09:01.408Z,17.70
2022-12-15T20:11:37.289Z,16.05
2022-12-15T20:14:20.135Z,12.38
2022-12-15T20:16:54.805Z,14.68
2022-12-15T20:19:25.746Z,18.92
2022-12-15T20:22:06.821Z,15.48
2022-12-15T20:24:43.593Z,13.27
2022-12-15T20:27:21.198Z,18.30
2022-12-15T20:30:08.356Z,13.93
2022-12-15T20:32:38.523Z,14.48
2022-12-15T20:38:55.007Z,14.43
2022-12-15T20:41:30.456Z,14.02
2022-12-15T20:44:35.598Z,12.38
2022-12-15T20:47:28.772Z,13.90
2022-12-15T20:54:20.308Z,18.45
2022-12-15T20:57:46.253Z,18.20
2022-12-15T21:00:43.977Z,16.00
2022-12-15T21:03:40.930Z,15.15
2022-12-15T21:06:19.422Z,19.05
2022-12-15T21:08:47.294Z,25.02
2022-12-15T21:11:29.268Z,17.42
2022-12-15T21:14:31.511Z,17.58
2022-12-15T21:17:05.554Z,16.63
2022-12-15T21:24:39.377Z,14.18
2022-12-15T21:27:19.240Z,15.13
2022-12-15T21:29:58.233Z,16.45
2022-12-15T21:32:40.006Z,15.57
2022-12-15T21:35:15.315Z,11.27
2022-12-15T21:37:52.427Z,15.07
2022-12-15T21:40:29.231Z,14.88
2022-12-15T21:43:25.526Z,12.75
2022-12-15T21:46:24.622Z,13.85
2022-12-15T21:49:14.579Z,21.15
2022-12-15T21:52:02.744Z,19.63
2022-12-15T21:54:37.252Z,20.27
2022-12-15T21:57:14.328Z,18.35
2022-12-15T21:59:47.988Z,19.27
2022-12-15T22:02:27.940Z,18.38
2022-12-15T22:05:02.546Z,15.38
2022-12-15T22:07:39.492Z,15.77
2022-12-15T22:10:13.589Z,16.38
2022-12-15T22:12:59.544Z,15.25
2022-12-15T22:16:17.832Z,15.88
2022-12-15T22:18:54.997Z,18.42
2022-12-15T22:21:24.965Z,18.13
2022-12-15T22:24:00.275Z,18.55
2022-12-15T22:26:34.472Z,21.42
2022-12-15T22:29:22.260Z,20.10
2022-12-15T22:32:18.942Z,20.00
2022-12-15T22:34:50.056Z,22.08
2022-12-15T22:37:19.909Z,19.67
2022-12-15T22:39:57.844Z,20.70
2022-12-15T22:42:26.523Z,22.10
2022-12-15T22:45:10.357Z,19.95
2022-12-15T22:47:41.074Z,19.45
2022-12-15T22:50:31.610Z,17.08
2022-12-15T22:53:04.806Z,16.75
2022-12-15T22:55:33.771Z,18.20
2022-12-15T22:58:22.691Z,16.95
2022-12-15T23:00:58.682Z,17.45
2022-12-15T23:03:32.344Z,17.60
2022-12-15T23:06:08.362Z,15.07
2022-12-15T23:11:42.263Z,16.15
2022-12-15T23:14:15.128Z,16.98
2022-12-15T23:16:57.000Z,21.88
2022-12-15T23:19:28.784Z,20.13
2022-12-15T23:21:57.527Z,18.75
2022-12-15T23:24:24.899Z,17.20
2022-12-15T23:27:00.796Z,16.73
2022-12-15T23:29:42.193Z,14.03
2022-12-15T23:32:12.816Z,13.65
2022-12-15T23:34:44.103Z,16.20
2022-12-15T23:37:16.484Z,18.05
2022-12-15T23:39:52.645Z,15.20
2022-12-15T23:42:26.679Z,14.48
2022-12-15T23:45:04.194Z,15.20
2022-12-15T23:47:38.775Z,17.42
2022-12-15T23:50:12.984Z,20.05
2022-12-15T23:52:51.325Z,22.73
2022-12-15T23:55:26.931Z,20.55
2022-12-15T23:57:58.858Z,21.67
